createdAt,value
2022-10-06T00:06:26.757Z,3.3
2022-10-06T00:13:59.031Z,3.3
2022-10-06T00:21:31.312Z,3.3
2022-10-06T00:29:03.597Z,2.6
2022-10-06T00:36:35.881Z,2.6
2022-10-06T00:44:08.155Z,2.6
2022-10-06T00:51:40.420Z,2.6
2022-10-06T00:59:12.678Z,2.6
2022-10-06T01:06:44.945Z,2.6
2022-10-06T01:14:17.205Z,2.6
2022-10-06T01:21:49.508Z,2.6
2022-10-06T01:29:21.780Z,2.2
2022-10-06T01:36:54.046Z,2.2
2022-10-06T01:44:26.326Z,2.2
2022-10-06T01:51:58.596Z,2.2
2022-10-06T01:59:30.865Z,2.2
2022-10-06T02:07:03.137Z,2.2
2022-10-06T02:14:35.406Z,2.2
2022-10-06T02:22:07.674Z,2.2
2022-10-06T02:29:39.937Z,2.1
2022-10-06T02:37:12.215Z,2.1
2022-10-06T02:44:44.478Z,2.1
2022-10-06T02:52:16.775Z,2.1
2022-10-06T02:59:49.040Z,2.1
2022-10-06T03:07:21.333Z,2.1
2022-10-06T03:14:53.603Z,2.1
2022-10-06T03:22:25.860Z,2.1
2022-10-06T03:29:58.117Z,2.0
2022-10-06T03:37:30.385Z,2.0
2022-10-06T03:45:02.667Z,2.0
2022-10-06T03:52:34.967Z,2.0
2022-10-06T04:00:07.241Z,2.0
2022-10-06T04:07:39.521Z,2.0
2022-10-06T04:08:27.245Z,2.0
2022-10-06T04:09:15.842Z,2.0
2022-10-06T04:10:03.351Z,2.0
2022-10-06T04:10:50.672Z,2.0
2022-10-06T04:11:37.944Z,2.0
2022-10-06T04:12:25.217Z,2.0
2022-10-06T04:13:12.532Z,2.0
2022-10-06T04:13:59.800Z,2.0
2022-10-06T04:14:47.081Z,2.0
2022-10-06T04:15:34.368Z,2.0
2022-10-06T04:16:21.669Z,2.0
2022-10-06T04:17:08.988Z,2.0
2022-10-06T04:17:56.304Z,2.0
2022-10-06T04:18:43.568Z,2.0
2022-10-06T04:19:30.848Z,2.0
2022-10-06T04:20:18.121Z,2.6
2022-10-06T04:21:05.489Z,2.6
2022-10-06T04:21:52.765Z,2.6
2022-10-06T04:22:40.057Z,2.6
2022-10-06T04:23:27.392Z,2.6
2022-10-06T04:24:14.644Z,2.6
2022-10-06T04:25:01.941Z,2.6
2022-10-06T04:25:53.777Z,2.6
2022-10-06T04:26:43.089Z,2.6
2022-10-06T04:27:30.453Z,2.6
2022-10-06T04:28:17.758Z,2.6
2022-10-06T04:29:05.092Z,2.6
2022-10-06T04:29:52.458Z,2.6
2022-10-06T04:30:39.760Z,2.6
2022-10-06T04:31:27.121Z,2.6
2022-10-06T04:32:14.473Z,2.6
2022-10-06T04:33:01.763Z,2.6
2022-10-06T04:33:49.059Z,2.6
2022-10-06T04:34:36.420Z,2.6
2022-10-06T04:35:23.761Z,2.6
2022-10-06T04:36:11.023Z,2.6
2022-10-06T04:36:58.460Z,2.6
2022-10-06T04:37:45.749Z,2.6
2022-10-06T04:38:33.329Z,2.6
2022-10-06T04:39:20.787Z,2.6
2022-10-06T04:40:08.155Z,2.6
2022-10-06T04:40:55.420Z,2.6
2022-10-06T04:41:42.732Z,2.6
2022-10-06T04:42:34.708Z,2.6
2022-10-06T04:43:22.437Z,2.6
2022-10-06T04:44:09.749Z,2.6
2022-10-06T04:44:57.008Z,2.6
2022-10-06T04:45:44.313Z,2.6
2022-10-06T04:46:47.152Z,2.6
2022-10-06T04:47:28.931Z,2.6
2022-10-06T04:48:16.328Z,2.6
2022-10-06T04:49:03.624Z,2.6
2022-10-06T04:49:50.885Z,2.6
2022-10-06T04:50:38.280Z,2.6
2022-10-06T04:51:25.544Z,2.6
2022-10-06T04:52:12.820Z,2.6
2022-10-06T04:53:00.211Z,2.6
2022-10-06T04:53:47.499Z,2.6
2022-10-06T04:54:34.784Z,2.6
2022-10-06T04:55:22.206Z,2.6
2022-10-06T04:56:09.928Z,2.6
2022-10-06T04:56:57.372Z,2.6
2022-10-06T04:57:44.654Z,2.6
2022-10-06T04:58:32.132Z,2.6
2022-10-06T04:59:19.615Z,2.6
2022-10-06T05:00:11.148Z,2.6
2022-10-06T05:01:01.310Z,2.6
2022-10-06T05:01:48.750Z,2.6
2022-10-06T05:02:36.106Z,2.6
2022-10-06T05:03:23.473Z,2.6
2022-10-06T05:04:10.877Z,2.6
2022-10-06T05:04:58.159Z,2.6
2022-10-06T05:05:45.945Z,2.6
2022-10-06T05:06:33.236Z,2.6
2022-10-06T05:07:20.582Z,2.6
2022-10-06T05:08:08.012Z,2.6
2022-10-06T05:08:55.272Z,2.6
2022-10-06T05:09:42.525Z,2.6
2022-10-06T05:10:29.785Z,2.6
2022-10-06T05:11:19.461Z,2.6
2022-10-06T05:12:08.609Z,2.6
2022-10-06T05:12:56.025Z,2.6
2022-10-06T05:13:43.324Z,2.6
2022-10-06T05:14:30.611Z,2.6
2022-10-06T05:15:18.018Z,2.6
2022-10-06T05:16:05.345Z,2.6
2022-10-06T05:16:52.783Z,2.6
2022-10-06T05:17:40.119Z,2.6
2022-10-06T05:18:27.718Z,2.6
2022-10-06T05:19:15.405Z,2.6
2022-10-06T05:20:02.718Z,5.6
2022-10-06T05:20:49.999Z,5.6
2022-10-06T05:21:37.347Z,5.6
2022-10-06T05:22:24.687Z,5.6
2022-10-06T05:23:11.981Z,5.6
2022-10-06T05:23:59.260Z,5.6
2022-10-06T05:24:46.686Z,5.6
2022-10-06T05:25:33.966Z,5.6
2022-10-06T05:26:21.432Z,5.6
2022-10-06T05:27:08.713Z,5.6
2022-10-06T05:27:56.058Z,5.6
2022-10-06T05:28:43.437Z,5.6
2022-10-06T05:29:30.796Z,5.6
2022-10-06T05:30:18.092Z,5.6
2022-10-06T05:31:05.386Z,5.6
2022-10-06T05:31:52.826Z,5.6
2022-10-06T05:32:40.150Z,5.6
2022-10-06T05:33:27.417Z,5.6
2022-10-06T05:34:14.812Z,5.6
2022-10-06T05:35:02.079Z,5.6
2022-10-06T05:35:49.340Z,5.6
2022-10-06T05:36:36.780Z,5.6
2022-10-06T05:37:24.053Z,5.6
2022-10-06T05:38:11.327Z,5.6
2022-10-06T05:38:58.731Z,5.6
2022-10-06T05:39:45.993Z,5.6
2022-10-06T05:40:33.257Z,5.6
2022-10-06T05:41:20.657Z,5.6
2022-10-06T05:42:07.923Z,5.6
2022-10-06T05:42:55.179Z,5.6
2022-10-06T05:43:42.593Z,5.6
2022-10-06T05:44:29.875Z,5.6
2022-10-06T05:45:17.149Z,5.6
2022-10-06T05:46:04.614Z,5.6
2022-10-06T05:46:52.132Z,5.6
2022-10-06T05:47:39.491Z,5.6
2022-10-06T05:48:27.335Z,5.6
2022-10-06T05:49:14.917Z,5.6
2022-10-06T05:50:02.182Z,5.6
2022-10-06T05:50:49.452Z,5.6
2022-10-06T05:51:36.761Z,5.6
2022-10-06T05:52:24.032Z,5.6
2022-10-06T05:53:11.477Z,5.6
2022-10-06T05:53:58.745Z,5.6
2022-10-06T05:54:46.010Z,5.6
2022-10-06T05:55:33.268Z,5.6
2022-10-06T05:56:20.699Z,5.6
2022-10-06T05:57:07.982Z,5.6
2022-10-06T05:57:55.275Z,5.6
2022-10-06T05:58:42.681Z,5.6
2022-10-06T05:59:29.965Z,5.6
2022-10-06T06:00:17.228Z,5.6
2022-10-06T06:01:04.659Z,5.6
2022-10-06T06:01:51.974Z,5.6
2022-10-06T06:02:39.253Z,5.6
2022-10-06T06:03:26.666Z,5.6
2022-10-06T06:04:13.943Z,5.6
2022-10-06T06:05:01.240Z,5.6
2022-10-06T06:05:48.611Z,5.6
2022-10-06T06:06:35.896Z,5.6
2022-10-06T06:07:23.372Z,5.6
2022-10-06T06:08:10.649Z,5.6
2022-10-06T06:08:57.917Z,5.6
2022-10-06T06:09:45.187Z,5.6
2022-10-06T06:10:32.605Z,5.6
2022-10-06T06:11:19.885Z,5.6
2022-10-06T06:12:07.148Z,5.6
2022-10-06T06:12:54.564Z,5.6
2022-10-06T06:13:41.828Z,5.6
2022-10-06T06:14:29.106Z,5.6
2022-10-06T06:15:16.499Z,5.6
2022-10-06T06:16:03.773Z,5.6
2022-10-06T06:16:51.112Z,5.6
2022-10-06T06:17:38.434Z,5.6
2022-10-06T06:18:25.804Z,5.6
2022-10-06T06:19:13.234Z,5.6
2022-10-06T06:20:00.658Z,9.0
2022-10-06T06:20:47.926Z,9.0
2022-10-06T06:21:35.218Z,9.0
2022-10-06T06:22:22.616Z,9.0
2022-10-06T06:23:09.891Z,9.0
2022-10-06T06:23:57.162Z,9.0
2022-10-06T06:24:44.579Z,9.0
2022-10-06T06:25:31.841Z,9.0
2022-10-06T06:26:19.109Z,9.0
2022-10-06T06:27:06.561Z,9.0
2022-10-06T06:27:53.851Z,9.0
2022-10-06T06:28:41.154Z,9.0
2022-10-06T06:29:28.550Z,9.0
2022-10-06T06:30:15.811Z,9.0
2022-10-06T06:31:03.139Z,9.0
2022-10-06T06:31:50.503Z,9.0
2022-10-06T06:32:37.769Z,9.0
2022-10-06T06:33:25.033Z,9.0
2022-10-06T06:34:12.486Z,9.0
2022-10-06T06:34:59.753Z,9.0
2022-10-06T06:35:47.025Z,9.0
2022-10-06T06:36:34.454Z,9.0
2022-10-06T06:37:21.734Z,9.0
2022-10-06T06:38:09.015Z,9.0
2022-10-06T06:38:56.447Z,9.0
2022-10-06T06:39:43.723Z,9.0
2022-10-06T06:40:30.994Z,9.0
2022-10-06T06:41:18.440Z,9.0
2022-10-06T06:42:05.710Z,9.0
2022-10-06T06:42:53.918Z,9.0
2022-10-06T06:43:41.328Z,9.0
2022-10-06T06:44:28.624Z,9.0
2022-10-06T06:45:15.917Z,9.0
2022-10-06T06:46:03.208Z,9.0
2022-10-06T06:46:50.609Z,9.0
2022-10-06T06:47:37.887Z,9.0
2022-10-06T06:48:25.169Z,9.0
2022-10-06T06:49:12.587Z,9.0
2022-10-06T06:49:59.888Z,9.0
2022-10-06T06:50:47.179Z,9.0
2022-10-06T06:51:34.599Z,9.0
2022-10-06T06:52:22.047Z,9.0
2022-10-06T06:53:13.949Z,9.0
2022-10-06T06:54:03.366Z,9.0
2022-10-06T06:54:50.768Z,9.0
2022-10-06T06:55:38.067Z,9.0
2022-10-06T06:56:25.366Z,9.0
2022-10-06T06:57:12.812Z,9.0
2022-10-06T06:58:00.092Z,9.0
2022-10-06T06:58:47.402Z,9.0
2022-10-06T06:59:34.802Z,9.0
2022-10-06T07:00:22.074Z,9.0
2022-10-06T07:01:09.587Z,9.0
2022-10-06T07:01:56.919Z,9.0
2022-10-06T07:02:44.199Z,9.0
2022-10-06T07:03:55.981Z,9.0
2022-10-06T07:04:28.716Z,9.0
2022-10-06T07:05:16.178Z,9.0
2022-10-06T07:06:03.453Z,9.0
2022-10-06T07:06:50.723Z,9.0
2022-10-06T07:07:38.146Z,9.0
2022-10-06T07:08:25.413Z,9.0
2022-10-06T07:09:12.693Z,9.0
2022-10-06T07:10:00.121Z,9.0
2022-10-06T07:10:47.412Z,9.0
2022-10-06T07:11:34.678Z,9.0
2022-10-06T07:12:22.115Z,9.0
2022-10-06T07:13:09.380Z,9.0
2022-10-06T07:13:56.640Z,9.0
2022-10-06T07:14:44.065Z,9.0
2022-10-06T07:15:31.534Z,9.0
2022-10-06T07:16:18.886Z,9.0
2022-10-06T07:17:06.265Z,9.0
2022-10-06T07:17:53.524Z,9.0
2022-10-06T07:18:40.806Z,9.0
2022-10-06T07:19:28.184Z,9.0
2022-10-06T07:20:15.518Z,15.8
2022-10-06T07:21:02.794Z,15.8
2022-10-06T07:21:50.377Z,15.8
2022-10-06T07:22:37.645Z,15.8
2022-10-06T07:23:24.916Z,15.8
2022-10-06T07:24:12.309Z,15.8
2022-10-06T07:24:59.572Z,15.8
2022-10-06T07:25:46.837Z,15.8
2022-10-06T07:26:34.232Z,15.8
2022-10-06T07:27:21.517Z,15.8
2022-10-06T07:28:08.822Z,15.8
2022-10-06T07:28:56.188Z,15.8
2022-10-06T07:29:43.456Z,15.8
2022-10-06T07:30:30.716Z,15.8
2022-10-06T07:31:18.157Z,15.8
2022-10-06T07:32:05.446Z,15.8
2022-10-06T07:32:52.708Z,15.8
2022-10-06T07:33:40.578Z,15.8
2022-10-06T07:34:27.877Z,15.8
2022-10-06T07:35:15.161Z,15.8
2022-10-06T07:36:02.469Z,15.8
2022-10-06T07:36:49.769Z,15.8
2022-10-06T07:37:37.028Z,15.8
2022-10-06T07:38:24.344Z,15.8
2022-10-06T07:39:11.612Z,15.8
2022-10-06T07:39:58.899Z,15.8
2022-10-06T07:40:55.579Z,15.8
2022-10-06T07:41:43.449Z,15.8
2022-10-06T07:42:30.843Z,15.8
2022-10-06T07:43:18.113Z,15.8
2022-10-06T07:44:07.978Z,15.8
2022-10-06T07:44:55.856Z,15.8
2022-10-06T07:45:43.483Z,15.8
2022-10-06T07:46:31.014Z,15.8
2022-10-06T07:47:18.285Z,15.8
2022-10-06T07:48:05.572Z,15.8
2022-10-06T07:48:52.877Z,15.8
2022-10-06T07:49:40.154Z,15.8
2022-10-06T07:50:27.440Z,15.8
2022-10-06T07:51:14.870Z,15.8
2022-10-06T07:52:02.140Z,15.8
2022-10-06T07:52:49.421Z,15.8
2022-10-06T07:53:36.858Z,15.8
2022-10-06T07:54:27.353Z,15.8
2022-10-06T07:55:14.819Z,15.8
2022-10-06T07:56:02.251Z,15.8
2022-10-06T07:56:49.516Z,15.8
2022-10-06T07:57:36.782Z,15.8
2022-10-06T07:58:24.225Z,15.8
2022-10-06T07:59:11.486Z,15.8
2022-10-06T08:00:02.860Z,15.8
2022-10-06T08:00:50.691Z,15.8
2022-10-06T08:01:38.124Z,15.8
2022-10-06T08:02:25.456Z,15.8
2022-10-06T08:03:12.809Z,15.8
2022-10-06T08:04:00.168Z,15.8
2022-10-06T08:04:47.454Z,15.8
2022-10-06T08:05:34.725Z,15.8
2022-10-06T08:06:22.149Z,15.8
2022-10-06T08:07:09.430Z,15.8
2022-10-06T08:07:56.725Z,15.8
2022-10-06T08:08:44.125Z,15.8
2022-10-06T08:09:31.387Z,15.8
2022-10-06T08:10:18.663Z,15.8
2022-10-06T08:11:06.283Z,15.8
2022-10-06T08:11:53.561Z,15.8
2022-10-06T08:12:40.899Z,15.8
2022-10-06T08:13:28.324Z,15.8
2022-10-06T08:14:15.596Z,15.8
2022-10-06T08:15:06.051Z,15.8
2022-10-06T08:15:54.816Z,15.8
2022-10-06T08:16:42.177Z,15.8
2022-10-06T08:17:29.452Z,15.8
2022-10-06T08:18:41.131Z,15.8
2022-10-06T08:19:14.032Z,15.8
2022-10-06T08:20:01.465Z,18.5
2022-10-06T08:20:48.778Z,18.5
2022-10-06T08:21:36.061Z,18.5
2022-10-06T08:22:23.475Z,18.5
2022-10-06T08:23:10.754Z,18.5
2022-10-06T08:23:58.011Z,18.5
2022-10-06T08:25:08.248Z,18.5
2022-10-06T08:25:42.692Z,18.5
2022-10-06T08:26:30.127Z,18.5
2022-10-06T08:27:17.397Z,18.5
2022-10-06T08:28:04.814Z,18.5
2022-10-06T08:28:52.178Z,18.5
2022-10-06T08:29:39.600Z,18.5
2022-10-06T08:30:26.877Z,18.5
2022-10-06T08:31:14.329Z,18.5
2022-10-06T08:32:01.730Z,18.5
2022-10-06T08:32:49.104Z,18.5
2022-10-06T08:33:36.479Z,18.5
2022-10-06T08:34:23.745Z,18.5
2022-10-06T08:35:11.024Z,18.5
2022-10-06T08:35:58.432Z,18.5
2022-10-06T08:37:02.212Z,18.5
2022-10-06T08:37:42.952Z,18.5
2022-10-06T08:38:30.371Z,18.5
2022-10-06T08:39:17.653Z,18.5
2022-10-06T08:40:04.937Z,18.5
2022-10-06T08:40:52.322Z,18.5
2022-10-06T08:41:39.622Z,18.5
2022-10-06T08:42:26.929Z,18.5
2022-10-06T08:43:14.317Z,18.5
2022-10-06T08:44:01.631Z,18.5
2022-10-06T08:44:48.897Z,18.5
2022-10-06T08:45:38.591Z,18.5
2022-10-06T08:46:26.270Z,18.5
2022-10-06T08:47:13.599Z,18.5
2022-10-06T08:48:00.844Z,18.5
2022-10-06T08:48:48.131Z,18.5
2022-10-06T08:49:35.439Z,18.5
2022-10-06T08:50:22.710Z,18.5
2022-10-06T08:51:09.989Z,18.5
2022-10-06T08:51:57.310Z,18.5
2022-10-06T08:52:44.578Z,18.5
2022-10-06T08:53:31.832Z,18.5
2022-10-06T08:54:19.166Z,18.5
2022-10-06T08:55:06.445Z,18.5
2022-10-06T08:55:53.717Z,18.5
2022-10-06T08:56:41.036Z,18.5
2022-10-06T08:57:28.308Z,18.5
2022-10-06T08:58:15.577Z,18.5
2022-10-06T08:59:02.938Z,18.5
2022-10-06T08:59:50.236Z,18.5
2022-10-06T09:00:37.498Z,18.5
2022-10-06T09:01:24.875Z,18.5
2022-10-06T09:02:12.283Z,18.5
2022-10-06T09:03:00.197Z,18.5
2022-10-06T09:03:47.585Z,18.5
2022-10-06T09:04:34.945Z,18.5
2022-10-06T09:05:22.249Z,18.5
2022-10-06T09:06:09.543Z,18.5
2022-10-06T09:06:56.805Z,18.5
2022-10-06T09:07:44.086Z,18.5
2022-10-06T09:08:31.339Z,18.5
2022-10-06T09:09:18.595Z,18.5
2022-10-06T09:10:05.857Z,18.5
2022-10-06T09:10:53.123Z,18.5
2022-10-06T09:11:40.413Z,18.5
2022-10-06T09:12:27.686Z,18.5
2022-10-06T09:13:18.439Z,18.5
2022-10-06T09:14:08.957Z,18.5
2022-10-06T09:14:56.344Z,18.5
2022-10-06T09:15:43.657Z,18.5
2022-10-06T09:16:30.987Z,18.5
2022-10-06T09:17:18.360Z,18.5
2022-10-06T09:18:05.629Z,18.5
2022-10-06T09:19:09.475Z,18.5
2022-10-06T09:19:50.180Z,12.6
2022-10-06T09:20:37.600Z,12.6
2022-10-06T09:21:24.868Z,12.6
2022-10-06T09:22:12.171Z,12.6
2022-10-06T09:22:59.569Z,12.6
2022-10-06T09:23:46.862Z,12.6
2022-10-06T09:24:34.141Z,12.6
2022-10-06T09:25:21.573Z,12.6
2022-10-06T09:26:08.844Z,12.6
2022-10-06T09:26:56.138Z,12.6
2022-10-06T09:27:43.554Z,12.6
2022-10-06T09:28:30.875Z,12.6
2022-10-06T09:29:18.176Z,12.6
2022-10-06T09:30:05.613Z,12.6
2022-10-06T09:30:55.356Z,12.6
2022-10-06T09:31:42.886Z,12.6
2022-10-06T09:32:30.232Z,12.6
2022-10-06T09:33:17.505Z,12.6
2022-10-06T09:34:04.787Z,12.6
2022-10-06T09:34:52.182Z,12.6
2022-10-06T09:35:39.459Z,12.6
2022-10-06T09:36:26.752Z,12.6
2022-10-06T09:37:14.125Z,12.6
2022-10-06T09:38:04.471Z,12.6
2022-10-06T09:38:55.351Z,12.6
2022-10-06T09:39:42.704Z,12.6
2022-10-06T09:40:29.980Z,12.6
2022-10-06T09:41:17.261Z,12.6
2022-10-06T09:42:04.651Z,12.6
2022-10-06T09:42:51.919Z,12.6
2022-10-06T09:43:39.210Z,12.6
2022-10-06T09:44:26.581Z,12.6
2022-10-06T09:45:13.842Z,12.6
2022-10-06T09:46:01.164Z,12.6
2022-10-06T09:46:48.516Z,12.6
2022-10-06T09:47:35.796Z,12.6
2022-10-06T09:48:24.949Z,12.6
2022-10-06T09:49:12.724Z,12.6
2022-10-06T09:50:00.041Z,12.6
2022-10-06T09:50:47.348Z,12.6
2022-10-06T09:51:34.621Z,12.6
2022-10-06T09:52:22.041Z,12.6
2022-10-06T09:53:09.309Z,12.6
2022-10-06T09:53:56.579Z,12.6
2022-10-06T09:54:44.003Z,12.6
2022-10-06T09:55:31.268Z,12.6
2022-10-06T09:56:18.532Z,12.6
2022-10-06T09:57:05.963Z,12.6
2022-10-06T09:57:53.236Z,12.6
2022-10-06T09:58:40.492Z,12.6
2022-10-06T09:59:27.933Z,12.6
2022-10-06T10:00:15.243Z,12.6
2022-10-06T10:01:02.579Z,12.6
2022-10-06T10:01:49.942Z,12.6
2022-10-06T10:02:37.423Z,12.6
2022-10-06T10:03:24.766Z,12.6
2022-10-06T10:04:21.102Z,12.6
2022-10-06T10:05:08.745Z,12.6
2022-10-06T10:05:56.161Z,12.6
2022-10-06T10:06:43.469Z,12.6
2022-10-06T10:07:30.764Z,12.6
2022-10-06T10:08:18.184Z,12.6
2022-10-06T10:09:05.497Z,12.6
2022-10-06T10:09:52.781Z,12.6
2022-10-06T10:10:40.187Z,12.6
2022-10-06T10:18:12.451Z,12.6
2022-10-06T10:25:44.749Z,12.6
2022-10-06T10:33:17.239Z,7.7
2022-10-06T10:40:49.561Z,7.7
2022-10-06T10:48:21.833Z,7.7
2022-10-06T10:53:42.689Z,7.7
2022-10-06T10:54:30.186Z,7.7
2022-10-06T10:55:17.605Z,7.7
2022-10-06T10:56:04.876Z,7.7
2022-10-06T10:56:52.144Z,7.7
2022-10-06T10:57:39.588Z,7.7
2022-10-06T10:58:27.284Z,7.7
2022-10-06T10:59:14.576Z,7.7
2022-10-06T11:00:01.949Z,7.7
2022-10-06T11:00:49.270Z,7.7
2022-10-06T11:01:36.623Z,7.7
2022-10-06T11:02:23.957Z,7.7
2022-10-06T11:03:11.231Z,7.7
2022-10-06T11:03:58.542Z,7.7
2022-10-06T11:04:45.900Z,7.7
2022-10-06T11:05:33.164Z,7.7
2022-10-06T11:06:20.427Z,7.7
2022-10-06T11:07:07.930Z,7.7
2022-10-06T11:07:55.395Z,7.7
2022-10-06T11:08:42.708Z,7.7
2022-10-06T11:09:30.112Z,7.7
2022-10-06T11:10:17.384Z,7.7
2022-10-06T11:11:04.648Z,7.7
2022-10-06T11:11:52.487Z,7.7
2022-10-06T11:12:40.098Z,7.7
2022-10-06T11:13:27.357Z,7.7
2022-10-06T11:14:14.651Z,7.7
2022-10-06T11:15:02.301Z,7.7
2022-10-06T11:15:49.938Z,7.7
2022-10-06T11:16:37.311Z,7.7
2022-10-06T11:17:24.617Z,7.7
2022-10-06T11:18:11.923Z,7.7
2022-10-06T11:18:59.223Z,7.7
2022-10-06T11:19:46.557Z,6.6
2022-10-06T11:20:33.838Z,6.6
2022-10-06T11:21:21.109Z,6.6
2022-10-06T11:22:08.390Z,6.6
2022-10-06T11:22:55.976Z,6.6
2022-10-06T11:23:43.240Z,6.6
2022-10-06T11:24:30.504Z,6.6
2022-10-06T11:25:17.842Z,6.6
2022-10-06T11:26:05.118Z,6.6
2022-10-06T11:26:52.833Z,6.6
2022-10-06T11:27:40.100Z,6.6
2022-10-06T11:28:27.395Z,6.6
2022-10-06T11:29:14.723Z,6.6
2022-10-06T11:30:02.243Z,6.6
2022-10-06T11:30:49.592Z,6.6
2022-10-06T11:31:37.427Z,6.6
2022-10-06T11:32:24.793Z,6.6
2022-10-06T11:33:12.180Z,6.6
2022-10-06T11:33:59.453Z,6.6
2022-10-06T11:34:46.749Z,6.6
2022-10-06T11:35:34.034Z,6.6
2022-10-06T11:36:21.304Z,6.6
2022-10-06T11:37:08.560Z,6.6
2022-10-06T11:37:55.894Z,6.6
2022-10-06T11:38:43.153Z,6.6
2022-10-06T11:39:30.415Z,6.6
2022-10-06T11:40:17.734Z,6.6
2022-10-06T11:41:09.319Z,6.6
2022-10-06T11:41:56.964Z,6.6
2022-10-06T11:42:44.378Z,6.6
2022-10-06T11:43:31.649Z,6.6
2022-10-06T11:44:18.921Z,6.6
2022-10-06T11:45:06.371Z,6.6
2022-10-06T11:45:53.725Z,6.6
2022-10-06T11:46:44.819Z,6.6
2022-10-06T11:47:35.520Z,6.6
2022-10-06T11:48:23.244Z,6.6
2022-10-06T11:49:10.653Z,6.6
2022-10-06T11:49:57.921Z,6.6
2022-10-06T11:50:45.191Z,6.6
2022-10-06T11:51:32.652Z,6.6
2022-10-06T11:52:19.931Z,6.6
2022-10-06T11:53:07.208Z,6.6
2022-10-06T11:53:54.619Z,6.6
2022-10-06T11:54:41.884Z,6.6
2022-10-06T11:55:29.301Z,6.6
2022-10-06T11:56:16.743Z,6.6
2022-10-06T11:57:04.052Z,6.6
2022-10-06T11:57:51.316Z,6.6
2022-10-06T11:58:42.373Z,6.6
2022-10-06T11:59:30.092Z,6.6
2022-10-06T12:00:17.537Z,6.6
2022-10-06T12:01:04.856Z,6.6
2022-10-06T12:01:52.404Z,6.6
2022-10-06T12:02:39.952Z,6.6
2022-10-06T12:03:27.565Z,6.6
2022-10-06T12:04:14.846Z,6.6
2022-10-06T12:05:02.235Z,6.6
2022-10-06T12:05:56.141Z,6.6
2022-10-06T12:06:44.212Z,6.6
2022-10-06T12:07:31.640Z,6.6
2022-10-06T12:08:18.918Z,6.6
2022-10-06T12:09:06.194Z,6.6
2022-10-06T12:09:53.652Z,6.6
2022-10-06T12:10:40.937Z,6.6
2022-10-06T12:11:28.213Z,6.6
2022-10-06T12:12:15.660Z,6.6
2022-10-06T12:13:07.198Z,6.6
2022-10-06T12:15:26.863Z,6.6
2022-10-06T12:17:44.254Z,6.6
2022-10-06T12:18:31.664Z,6.6
2022-10-06T12:19:18.930Z,6.6
2022-10-06T12:20:06.319Z,6.6
2022-10-06T12:20:53.581Z,6.6
2022-10-06T12:21:40.814Z,6.6
2022-10-06T12:22:28.037Z,6.6
2022-10-06T12:23:15.496Z,6.6
2022-10-06T12:24:02.747Z,6.6
2022-10-06T12:24:50.032Z,6.6
2022-10-06T12:25:39.431Z,6.6
2022-10-06T12:27:14.000Z,6.6
2022-10-06T12:28:01.285Z,6.6
2022-10-06T12:28:48.758Z,6.6
2022-10-06T12:29:36.010Z,6.6
2022-10-06T12:30:23.240Z,6.6
2022-10-06T12:31:14.550Z,6.6
2022-10-06T12:32:05.147Z,6.6
2022-10-06T12:32:52.527Z,6.6
2022-10-06T12:33:39.732Z,6.6
2022-10-06T12:34:26.983Z,6.6
2022-10-06T12:35:14.729Z,6.6
2022-10-06T12:36:02.096Z,6.6
2022-10-06T12:36:49.324Z,6.6
2022-10-06T12:37:36.805Z,6.6
2022-10-06T12:38:24.050Z,6.6
2022-10-06T12:39:11.279Z,6.6
2022-10-06T12:39:58.652Z,6.6
2022-10-06T12:40:45.888Z,6.6
2022-10-06T12:41:33.127Z,6.6
2022-10-06T12:42:20.420Z,6.6
2022-10-06T12:43:07.652Z,6.6
2022-10-06T12:43:54.886Z,6.6
2022-10-06T12:44:42.176Z,6.6
2022-10-06T12:45:29.416Z,6.6
2022-10-06T12:46:17.112Z,6.6
2022-10-06T12:47:04.372Z,6.6
2022-10-06T12:47:51.611Z,6.6
2022-10-06T12:48:38.838Z,6.6
2022-10-06T12:49:26.137Z,6.6
2022-10-06T12:50:13.367Z,6.6
2022-10-06T12:51:00.782Z,6.6
2022-10-06T12:51:48.030Z,6.6
2022-10-06T12:52:35.271Z,6.6
2022-10-06T12:53:22.514Z,6.6
2022-10-06T12:54:09.800Z,6.6
2022-10-06T12:54:57.402Z,6.6
2022-10-06T12:55:44.885Z,6.6
2022-10-06T12:56:32.204Z,6.6
2022-10-06T12:57:19.448Z,6.6
2022-10-06T12:58:06.705Z,6.6
2022-10-06T12:58:53.983Z,6.6
2022-10-06T12:59:41.237Z,6.6
2022-10-06T13:00:28.487Z,6.6
2022-10-06T13:01:15.848Z,6.6
2022-10-06T13:02:03.179Z,6.6
2022-10-06T13:02:50.484Z,6.6
2022-10-06T13:03:37.776Z,6.6
2022-10-06T13:04:25.005Z,6.6
2022-10-06T13:05:12.239Z,6.6
2022-10-06T13:05:59.547Z,6.6
2022-10-06T13:06:46.918Z,6.6
2022-10-06T13:07:34.169Z,6.6
2022-10-06T13:08:21.525Z,6.6
2022-10-06T13:09:08.756Z,6.6
2022-10-06T13:09:55.980Z,6.6
2022-10-06T13:11:31.488Z,6.6
2022-10-06T13:12:18.717Z,6.6
2022-10-06T13:13:06.118Z,6.6
2022-10-06T13:13:53.513Z,6.6
2022-10-06T13:14:40.748Z,6.6
2022-10-06T13:15:28.049Z,6.6
2022-10-06T13:16:15.469Z,6.6
2022-10-06T13:17:03.495Z,6.6
2022-10-06T13:17:50.911Z,6.6
2022-10-06T13:18:38.193Z,6.6
2022-10-06T13:19:25.426Z,6.6
2022-10-06T13:20:12.664Z,7.9
2022-10-06T13:20:59.938Z,7.9
2022-10-06T13:21:47.171Z,7.9
2022-10-06T13:22:35.161Z,7.9
2022-10-06T13:23:22.495Z,7.9
2022-10-06T13:24:09.787Z,7.9
2022-10-06T13:24:57.248Z,7.9
2022-10-06T13:25:44.488Z,7.9
2022-10-06T13:26:31.765Z,7.9
2022-10-06T13:27:19.009Z,7.9
2022-10-06T13:28:06.303Z,7.9
2022-10-06T13:28:53.570Z,7.9
2022-10-06T13:29:40.818Z,7.9
2022-10-06T13:30:28.326Z,7.9
2022-10-06T13:31:15.600Z,7.9
2022-10-06T13:32:02.834Z,7.9
2022-10-06T13:32:50.067Z,7.9
2022-10-06T13:33:37.388Z,7.9
2022-10-06T13:34:24.619Z,7.9
2022-10-06T13:35:11.867Z,7.9
2022-10-06T13:35:59.225Z,7.9
2022-10-06T13:36:46.451Z,7.9
2022-10-06T13:37:33.688Z,7.9
2022-10-06T13:38:20.997Z,7.9
2022-10-06T13:39:08.255Z,7.9
2022-10-06T13:39:55.667Z,7.9
2022-10-06T13:40:45.203Z,7.9
2022-10-06T13:41:32.812Z,7.9
2022-10-06T13:42:20.214Z,7.9
2022-10-06T13:43:07.519Z,7.9
2022-10-06T13:43:54.747Z,7.9
2022-10-06T13:44:42.176Z,7.9
2022-10-06T13:45:29.648Z,7.9
2022-10-06T13:46:16.973Z,7.9
2022-10-06T13:47:04.280Z,7.9
2022-10-06T13:47:51.508Z,7.9
2022-10-06T13:48:38.736Z,7.9
2022-10-06T13:49:26.144Z,7.9
2022-10-06T13:50:18.810Z,7.9
2022-10-06T13:51:06.954Z,7.9
2022-10-06T13:51:54.339Z,7.9
2022-10-06T13:52:41.572Z,7.9
2022-10-06T13:53:28.800Z,7.9
2022-10-06T13:54:16.235Z,7.9
2022-10-06T13:55:03.880Z,7.9
2022-10-06T13:55:51.281Z,7.9
2022-10-06T13:56:38.695Z,7.9
2022-10-06T13:57:25.923Z,7.9
2022-10-06T13:58:13.156Z,7.9
2022-10-06T13:59:00.596Z,7.9
2022-10-06T13:59:47.852Z,7.9
2022-10-06T14:00:35.099Z,7.9
2022-10-06T14:01:22.582Z,7.9
2022-10-06T14:02:09.935Z,7.9
2022-10-06T14:02:57.251Z,7.9
2022-10-06T14:03:44.650Z,7.9
2022-10-06T14:04:34.684Z,7.9
2022-10-06T14:05:24.619Z,7.9
2022-10-06T14:06:12.056Z,7.9
2022-10-06T14:06:59.297Z,7.9
2022-10-06T14:07:46.532Z,7.9
2022-10-06T14:08:33.964Z,7.9
2022-10-06T14:09:21.417Z,7.9
2022-10-06T14:10:08.647Z,7.9
2022-10-06T14:10:56.067Z,7.9
2022-10-06T14:11:46.151Z,7.9
2022-10-06T14:12:34.305Z,7.9
2022-10-06T14:13:21.626Z,7.9
2022-10-06T14:14:08.958Z,7.9
2022-10-06T14:14:56.530Z,7.9
2022-10-06T14:15:43.964Z,7.9
2022-10-06T14:16:31.327Z,7.9
2022-10-06T14:17:18.574Z,7.9
2022-10-06T14:18:05.881Z,7.9
2022-10-06T14:18:53.139Z,7.9
2022-10-06T14:19:40.397Z,9.4
2022-10-06T14:20:27.699Z,9.4
2022-10-06T14:21:14.928Z,9.4
2022-10-06T14:22:02.160Z,9.4
2022-10-06T14:22:49.471Z,9.4
2022-10-06T14:23:36.704Z,9.4
2022-10-06T14:24:23.938Z,9.4
2022-10-06T14:25:11.254Z,9.4
2022-10-06T14:25:58.536Z,9.4
2022-10-06T14:26:45.790Z,9.4
2022-10-06T14:27:33.057Z,9.4
2022-10-06T14:28:20.322Z,9.4
2022-10-06T14:29:07.556Z,9.4
2022-10-06T14:29:54.866Z,9.4
2022-10-06T14:30:42.170Z,9.4
2022-10-06T14:31:29.840Z,9.4
2022-10-06T14:32:17.089Z,9.4
2022-10-06T14:33:04.309Z,9.4
2022-10-06T14:33:51.537Z,9.4
2022-10-06T14:34:38.825Z,9.4
2022-10-06T14:35:26.068Z,9.4
2022-10-06T14:36:13.299Z,9.4
2022-10-06T14:37:00.587Z,9.4
2022-10-06T14:37:47.818Z,9.4
2022-10-06T14:38:35.067Z,9.4
2022-10-06T14:39:22.368Z,9.4
2022-10-06T14:40:12.074Z,9.4
2022-10-06T14:40:59.592Z,9.4
2022-10-06T14:41:46.938Z,9.4
2022-10-06T14:42:34.216Z,9.4
2022-10-06T14:43:21.457Z,9.4
2022-10-06T14:44:08.735Z,9.4
2022-10-06T14:44:56.156Z,9.4
2022-10-06T14:45:43.480Z,9.4
2022-10-06T14:46:30.828Z,9.4
2022-10-06T14:47:18.149Z,9.4
2022-10-06T14:48:05.384Z,9.4
2022-10-06T14:48:52.713Z,9.4
2022-10-06T14:49:39.980Z,9.4
2022-10-06T14:50:27.237Z,9.4
2022-10-06T14:51:14.545Z,9.4
2022-10-06T14:52:01.842Z,9.4
2022-10-06T14:52:49.127Z,9.4
2022-10-06T14:53:36.493Z,9.4
2022-10-06T14:54:23.836Z,9.4
2022-10-06T14:55:11.099Z,9.4
2022-10-06T14:55:58.791Z,9.4
2022-10-06T14:56:46.131Z,9.4
2022-10-06T14:57:33.502Z,9.4
2022-10-06T14:58:20.872Z,9.4
2022-10-06T14:59:08.191Z,9.4
2022-10-06T14:59:55.794Z,9.4
2022-10-06T15:00:43.575Z,9.4
2022-10-06T15:01:30.893Z,9.4
2022-10-06T15:02:18.186Z,9.4
2022-10-06T15:03:05.567Z,9.4
2022-10-06T15:03:52.975Z,9.4
2022-10-06T15:04:40.320Z,9.4
2022-10-06T15:05:27.557Z,9.4
2022-10-06T15:06:14.868Z,9.4
2022-10-06T15:07:02.113Z,9.4
2022-10-06T15:07:49.362Z,9.4
2022-10-06T15:08:36.909Z,9.4
2022-10-06T15:09:24.212Z,9.4
2022-10-06T15:10:11.447Z,9.4
2022-10-06T15:10:58.857Z,9.4
2022-10-06T15:11:46.222Z,9.4
2022-10-06T15:12:34.186Z,9.4
2022-10-06T15:13:21.897Z,9.4
2022-10-06T15:14:09.175Z,9.4